createdAt,value
2019-02-06T00:00:47.067Z,114.17
2019-02-06T00:03:21.246Z,114.87
2019-02-06T00:05:51.651Z,115.17
2019-02-06T00:08:22.156Z,112.67
2019-02-06T00:10:52.565Z,118.47
2019-02-06T00:13:23.032Z,112.03
2019-02-06T00:15:53.626Z,104.20
2019-02-06T00:18:24.226Z,118.87
2019-02-06T00:20:54.582Z,119.80
2019-02-06T00:23:25.039Z,113.13
2019-02-06T00:25:55.529Z,110.60
2019-02-06T00:28:25.800Z,109.73
2019-02-06T00:30:56.129Z,124.43
2019-02-06T00:33:26.430Z,118.33
2019-02-06T00:35:56.756Z,110.23
2019-02-06T00:38:27.116Z,118.67
2019-02-06T00:40:57.452Z,106.77
2019-02-06T00:43:28.322Z,109.40
2019-02-06T00:45:59.088Z,106.60
2019-02-06T00:48:29.585Z,117.17
2019-02-06T00:50:59.852Z,122.43
2019-02-06T00:53:30.204Z,116.27
2019-02-06T00:56:00.491Z,145.80
2019-02-06T00:58:30.974Z,138.20
2019-02-06T01:01:01.243Z,132.30
2019-02-06T01:03:31.581Z,116.87
2019-02-06T01:06:02.183Z,110.43
2019-02-06T01:08:32.507Z,109.53
2019-02-06T01:11:03.514Z,111.60
2019-02-06T01:13:33.853Z,102.60
2019-02-06T01:16:04.468Z,118.13
2019-02-06T01:18:34.832Z,150.93
2019-02-06T01:21:05.181Z,158.13
2019-02-06T01:23:35.724Z,191.90
2019-02-06T01:26:06.404Z,191.33
2019-02-06T01:28:36.776Z,167.87
2019-02-06T01:31:15.561Z,168.63
2019-02-06T01:33:47.080Z,144.33
2019-02-06T01:36:19.194Z,136.67
2019-02-06T01:38:49.552Z,136.10
2019-02-06T01:41:19.836Z,130.47
2019-02-06T01:43:50.269Z,120.73
2019-02-06T01:46:20.692Z,114.17
2019-02-06T01:48:51.232Z,107.40
2019-02-06T01:51:21.964Z,112.43
2019-02-06T01:53:52.403Z,103.80
2019-02-06T01:56:22.662Z,102.53
2019-02-06T01:58:53.011Z,109.40
2019-02-06T02:01:23.321Z,100.40
2019-02-06T02:03:53.662Z,103.17
2019-02-06T02:06:24.512Z,103.90
2019-02-06T02:09:01.903Z,101.87
2019-02-06T02:11:33.051Z,96.27
2019-02-06T02:14:03.326Z,97.57
2019-02-06T02:16:33.558Z,94.30
2019-02-06T02:19:04.322Z,108.80
2019-02-06T02:21:34.576Z,98.93
2019-02-06T02:24:04.875Z,102.03
2019-02-06T02:26:35.307Z,90.43
2019-02-06T02:29:05.729Z,95.17
2019-02-06T02:31:36.158Z,88.17
2019-02-06T02:34:06.697Z,95.67
2019-02-06T02:36:37.224Z,81.43
2019-02-06T02:39:08.171Z,91.87
2019-02-06T02:41:38.584Z,96.30
2019-02-06T02:44:08.981Z,96.00
2019-02-06T02:46:39.686Z,90.10
2019-02-06T02:49:10.046Z,94.83
2019-02-06T02:51:44.055Z,96.73
2019-02-06T02:54:12.756Z,83.07
2019-02-06T02:56:43.234Z,81.53
2019-02-06T02:59:13.781Z,91.87
2019-02-06T03:01:54.325Z,83.67
2019-02-06T03:04:33.823Z,84.87
2019-02-06T03:07:04.050Z,89.07
2019-02-06T03:09:34.423Z,96.60
2019-02-06T03:12:04.715Z,86.47
2019-02-06T03:14:34.998Z,85.77
2019-02-06T03:17:05.538Z,83.47
2019-02-06T03:19:35.866Z,88.10
2019-02-06T03:22:06.505Z,89.07
2019-02-06T03:24:38.253Z,92.57
2019-02-06T03:27:08.701Z,79.40
2019-02-06T03:29:39.109Z,81.40
2019-02-06T03:32:09.434Z,84.53
2019-02-06T03:34:39.887Z,80.13
2019-02-06T03:37:10.206Z,84.63
2019-02-06T03:39:40.546Z,87.10
2019-02-06T03:42:10.922Z,83.07
2019-02-06T03:44:41.347Z,86.53
2019-02-06T03:47:11.683Z,85.77
2019-02-06T03:49:42.765Z,83.50
2019-02-06T03:52:13.564Z,83.17
2019-02-06T03:54:43.900Z,85.87
2019-02-06T03:57:14.425Z,84.10
2019-02-06T03:59:44.727Z,83.40
2019-02-06T04:02:15.069Z,84.43
2019-02-06T04:04:45.488Z,78.77
2019-02-06T04:07:15.970Z,83.30
2019-02-06T04:09:46.553Z,73.93
2019-02-06T04:12:16.974Z,81.83
2019-02-06T04:14:47.314Z,85.00
2019-02-06T04:17:17.726Z,79.27
2019-02-06T04:19:48.257Z,87.00
2019-02-06T04:22:18.638Z,86.97
2019-02-06T04:24:51.533Z,80.30
2019-02-06T04:27:20.963Z,82.37
2019-02-06T04:29:51.213Z,81.80
2019-02-06T04:32:23.489Z,76.77
2019-02-06T04:34:53.795Z,79.17
2019-02-06T04:37:24.205Z,79.73
2019-02-06T04:39:54.962Z,82.30
2019-02-06T04:42:25.352Z,79.07
2019-02-06T04:44:55.897Z,89.03
2019-02-06T04:47:26.630Z,80.23
2019-02-06T04:49:57.171Z,82.30
2019-02-06T04:52:28.526Z,88.60
2019-02-06T04:54:58.836Z,79.40
2019-02-06T04:57:29.494Z,80.17
2019-02-06T04:59:59.793Z,76.87
2019-02-06T05:02:30.119Z,73.57
2019-02-06T05:05:00.534Z,73.03
2019-02-06T05:07:31.906Z,85.13
2019-02-06T05:10:02.272Z,83.60
2019-02-06T05:12:32.713Z,84.53
2019-02-06T05:15:03.491Z,82.40
2019-02-06T05:17:33.867Z,81.23
2019-02-06T05:20:09.877Z,80.97
2019-02-06T05:22:40.392Z,85.20
2019-02-06T05:25:10.714Z,83.20
2019-02-06T05:27:41.283Z,78.23
2019-02-06T05:30:12.021Z,78.17
2019-02-06T05:32:42.927Z,77.97
2019-02-06T05:35:13.785Z,78.33
2019-02-06T05:37:44.218Z,75.70
2019-02-06T05:40:14.706Z,74.60
2019-02-06T05:42:45.575Z,73.97
2019-02-06T05:45:16.086Z,76.80
2019-02-06T05:47:46.437Z,78.53
2019-02-06T05:50:17.146Z,79.20
2019-02-06T05:52:47.643Z,79.20
2019-02-06T05:55:18.074Z,75.70
2019-02-06T05:57:49.021Z,71.37
2019-02-06T06:00:23.881Z,80.07
2019-02-06T06:02:54.360Z,77.17
2019-02-06T06:05:24.799Z,78.90
2019-02-06T06:07:55.166Z,80.60
2019-02-06T06:10:26.055Z,73.10
2019-02-06T06:12:56.453Z,73.73
2019-02-06T06:15:27.804Z,78.90
2019-02-06T06:17:58.233Z,72.73
2019-02-06T06:20:28.712Z,66.87
2019-02-06T06:22:59.066Z,68.10
2019-02-06T06:25:29.810Z,77.43
2019-02-06T06:28:00.712Z,67.30
2019-02-06T06:30:31.204Z,75.10
2019-02-06T06:33:01.589Z,78.23
2019-02-06T06:35:32.082Z,77.63
2019-02-06T06:38:03.013Z,73.37
2019-02-06T06:40:33.529Z,72.10
2019-02-06T06:43:03.852Z,83.30
2019-02-06T06:45:34.342Z,70.50
2019-02-06T06:48:04.704Z,74.83
2019-02-06T06:50:35.220Z,75.23
2019-02-06T06:53:05.941Z,73.50
2019-02-06T06:55:36.332Z,77.47
2019-02-06T06:58:06.880Z,72.70
2019-02-06T07:00:37.275Z,78.13
2019-02-06T07:03:07.664Z,72.73
2019-02-06T07:05:38.664Z,79.67
2019-02-06T07:08:13.252Z,71.30
2019-02-06T07:10:41.208Z,71.93
2019-02-06T07:13:13.481Z,77.83
2019-02-06T07:15:43.927Z,76.63
2019-02-06T07:18:14.388Z,73.20
2019-02-06T07:20:45.086Z,75.67
2019-02-06T07:23:15.536Z,64.97
2019-02-06T07:25:45.934Z,66.03
2019-02-06T07:28:16.261Z,68.50
2019-02-06T07:30:46.500Z,70.83
2019-02-06T07:33:17.855Z,68.63
2019-02-06T07:35:48.322Z,73.60
2019-02-06T07:38:24.481Z,65.17
2019-02-06T07:40:50.738Z,60.07
2019-02-06T07:43:21.144Z,61.57
2019-02-06T07:45:51.727Z,62.13
2019-02-06T07:48:22.482Z,58.53
2019-02-06T07:50:52.936Z,59.93
2019-02-06T07:53:23.253Z,57.60
2019-02-06T07:55:53.618Z,58.63
2019-02-06T07:58:24.036Z,55.67
2019-02-06T08:00:54.572Z,57.30
2019-02-06T08:03:24.894Z,58.57
2019-02-06T08:05:55.285Z,62.60
2019-02-06T08:08:35.624Z,59.70
2019-02-06T08:10:57.664Z,61.40
2019-02-06T08:13:28.063Z,56.87
2019-02-06T08:15:59.024Z,59.10
2019-02-06T08:18:30.419Z,58.20
2019-02-06T08:21:00.810Z,59.07
2019-02-06T08:23:31.357Z,52.93
2019-02-06T08:26:01.920Z,56.33
2019-02-06T08:28:32.427Z,57.10
2019-02-06T08:31:02.891Z,57.57
2019-02-06T08:33:33.266Z,52.13
2019-02-06T08:36:04.183Z,58.77
2019-02-06T08:38:34.645Z,56.97
2019-02-06T08:41:05.572Z,53.70
2019-02-06T08:43:36.363Z,54.83
2019-02-06T08:46:06.802Z,50.57
2019-02-06T08:48:37.343Z,56.10
2019-02-06T08:51:07.836Z,54.27
2019-02-06T08:53:38.186Z,56.03
2019-02-06T08:56:08.693Z,51.33
2019-02-06T08:58:39.143Z,50.77
2019-02-06T09:01:09.662Z,49.90
2019-02-06T09:03:40.135Z,45.80
2019-02-06T09:06:10.583Z,51.20
2019-02-06T09:08:41.083Z,50.17
2019-02-06T09:11:11.522Z,46.30
2019-02-06T09:13:41.994Z,47.93
2019-02-06T09:16:12.407Z,47.50
2019-02-06T09:18:42.879Z,51.47
2019-02-06T09:21:13.325Z,55.27
2019-02-06T09:23:43.772Z,50.57
2019-02-06T09:26:14.400Z,49.63
2019-02-06T09:28:44.885Z,51.13
2019-02-06T09:31:15.363Z,53.73
2019-02-06T09:33:45.827Z,59.43
2019-02-06T09:36:16.253Z,53.53
2019-02-06T09:38:46.768Z,54.93
2019-02-06T09:41:17.283Z,64.87
2019-02-06T09:43:47.741Z,57.77
2019-02-06T09:46:18.207Z,55.73
2019-02-06T09:48:48.741Z,87.93
2019-02-06T09:51:19.432Z,114.67
2019-02-06T09:53:50.344Z,99.97
2019-02-06T09:56:20.780Z,59.97
2019-02-06T09:58:51.483Z,49.00
2019-02-06T10:01:21.895Z,49.90
2019-02-06T10:03:52.353Z,52.53
2019-02-06T10:06:22.794Z,74.23
2019-02-06T10:08:53.375Z,78.17
2019-02-06T10:11:23.695Z,64.57
2019-02-06T10:13:54.136Z,54.37
2019-02-06T10:16:24.557Z,47.70
2019-02-06T10:18:54.926Z,48.07
2019-02-06T10:21:25.343Z,45.67
2019-02-06T10:23:55.693Z,44.33
2019-02-06T10:26:26.184Z,42.97
2019-02-06T10:28:56.541Z,43.17
2019-02-06T10:31:27.102Z,41.23
2019-02-06T10:33:57.456Z,43.53
2019-02-06T10:36:28.304Z,43.10
2019-02-06T10:38:58.703Z,45.37
2019-02-06T10:41:29.253Z,46.83
2019-02-06T10:43:59.572Z,42.90
2019-02-06T10:46:29.879Z,43.57
2019-02-06T10:49:00.249Z,43.77
2019-02-06T10:51:30.686Z,40.43
2019-02-06T10:54:01.202Z,47.70
2019-02-06T10:56:31.543Z,44.87
2019-02-06T10:59:01.935Z,41.27
2019-02-06T11:01:32.353Z,39.10
2019-02-06T11:04:03.169Z,41.40
2019-02-06T11:06:33.669Z,38.33
2019-02-06T11:09:05.531Z,43.60
2019-02-06T11:11:35.906Z,43.07
2019-02-06T11:14:06.479Z,41.00
2019-02-06T11:16:36.853Z,44.83
2019-02-06T11:19:07.495Z,42.23
2019-02-06T11:21:38.027Z,40.53
2019-02-06T11:24:08.677Z,35.40
2019-02-06T11:26:39.553Z,35.23
2019-02-06T11:29:09.953Z,35.90
2019-02-06T11:31:40.787Z,40.83
2019-02-06T11:34:11.190Z,37.57
2019-02-06T11:36:41.618Z,43.30
2019-02-06T11:39:18.566Z,41.37
2019-02-06T11:41:49.029Z,41.00
2019-02-06T11:44:19.803Z,35.60
2019-02-06T11:46:50.367Z,43.67
2019-02-06T11:49:25.277Z,41.27
2019-02-06T11:51:55.690Z,33.13
2019-02-06T11:54:26.168Z,39.47
2019-02-06T11:56:56.958Z,35.73
2019-02-06T11:59:27.454Z,42.70
2019-02-06T12:01:58.005Z,44.63
2019-02-06T12:04:28.483Z,32.43
2019-02-06T12:06:58.901Z,35.80
2019-02-06T12:09:29.300Z,42.63
2019-02-06T12:12:00.174Z,41.57
2019-02-06T12:14:30.622Z,36.97
2019-02-06T12:17:01.070Z,38.00
2019-02-06T12:19:31.538Z,30.13
2019-02-06T12:22:01.907Z,26.30
2019-02-06T12:24:32.361Z,40.50
2019-02-06T12:27:02.797Z,45.17
2019-02-06T12:29:33.300Z,39.57
2019-02-06T12:32:03.822Z,40.87
2019-02-06T12:34:34.339Z,35.67
2019-02-06T12:37:05.335Z,44.43
2019-02-06T12:39:35.857Z,36.43
2019-02-06T12:42:06.335Z,43.33
2019-02-06T12:44:36.843Z,39.13
2019-02-06T12:47:07.221Z,41.30
2019-02-06T12:49:37.539Z,44.00
2019-02-06T12:52:07.999Z,41.23
2019-02-06T12:54:38.464Z,42.80
2019-02-06T12:57:09.027Z,43.70
2019-02-06T12:59:39.396Z,42.63
2019-02-06T13:02:09.908Z,17.73
2019-02-06T13:04:40.160Z,36.93
2019-02-06T13:07:10.534Z,43.60
2019-02-06T13:09:40.976Z,42.40
2019-02-06T13:12:11.532Z,39.90
2019-02-06T13:14:41.905Z,40.57
2019-02-06T13:17:12.367Z,40.17
2019-02-06T13:19:42.818Z,41.00
2019-02-06T13:22:13.214Z,39.70
2019-02-06T13:24:43.642Z,41.83
2019-02-06T13:27:14.103Z,43.13
2019-02-06T13:29:44.521Z,38.97
2019-02-06T13:32:14.890Z,39.47
2019-02-06T13:34:45.313Z,45.00
2019-02-06T13:37:15.786Z,41.60
2019-02-06T13:39:46.215Z,39.60
2019-02-06T13:42:16.625Z,35.60
2019-02-06T13:44:47.045Z,38.43
2019-02-06T13:47:17.502Z,33.27
2019-02-06T13:49:48.110Z,39.50
2019-02-06T13:52:18.750Z,41.07
2019-02-06T13:54:49.095Z,38.23
2019-02-06T13:57:19.502Z,27.73
2019-02-06T13:59:49.948Z,44.90
2019-02-06T14:02:21.611Z,38.33
2019-02-06T14:04:52.193Z,38.83
2019-02-06T14:07:22.851Z,35.67
2019-02-06T14:09:53.332Z,39.03
2019-02-06T14:12:24.830Z,38.97
2019-02-06T14:14:55.982Z,42.17
2019-02-06T14:17:26.459Z,38.20
2019-02-06T14:19:57.364Z,41.60
2019-02-06T14:22:28.271Z,41.40
2019-02-06T14:25:12.994Z,40.90
2019-02-06T14:28:14.656Z,40.47
2019-02-06T14:31:00.335Z,47.57
2019-02-06T14:33:58.429Z,46.37
2019-02-06T14:37:07.606Z,44.37
2019-02-06T14:39:51.043Z,43.40
2019-02-06T14:43:01.144Z,42.97
2019-02-06T14:45:50.678Z,45.17
2019-02-06T14:48:59.763Z,45.77
2019-02-06T14:52:01.750Z,45.93
2019-02-06T14:54:51.259Z,43.17
2019-02-06T14:57:54.522Z,44.83
2019-02-06T15:01:00.018Z,38.33
2019-02-06T15:03:54.666Z,35.33
2019-02-06T15:07:03.759Z,37.87
2019-02-06T15:10:07.109Z,32.03
2019-02-06T15:13:08.865Z,33.03
2019-02-06T15:16:11.389Z,33.27
2019-02-06T15:19:20.634Z,36.53
2019-02-06T15:22:18.596Z,43.37
2019-02-06T15:24:59.130Z,38.87
2019-02-06T15:28:00.632Z,41.63
2019-02-06T15:31:09.693Z,50.33
2019-02-06T15:34:06.806Z,59.50
2019-02-06T15:36:56.052Z,58.97
2019-02-06T15:40:00.521Z,47.47
2019-02-06T15:42:45.146Z,37.67
2019-02-06T15:45:38.766Z,35.17
2019-02-06T15:48:33.863Z,42.33
2019-02-06T15:51:43.025Z,31.17
2019-02-06T15:54:45.697Z,40.10
2019-02-06T15:57:41.242Z,36.40
2019-02-06T16:00:50.342Z,37.83
2019-02-06T16:04:14.048Z,30.70
2019-02-06T16:07:23.152Z,34.50
2019-02-06T16:10:24.014Z,28.63
2019-02-06T16:13:14.953Z,32.00
2019-02-06T16:16:12.521Z,33.73
2019-02-06T16:18:55.446Z,38.10
2019-02-06T16:21:52.646Z,36.93
2019-02-06T16:24:44.564Z,31.30
2019-02-06T16:27:53.686Z,39.10
2019-02-06T16:31:02.919Z,42.03
2019-02-06T16:33:59.504Z,42.07
2019-02-06T16:36:55.326Z,42.60
2019-02-06T16:39:47.714Z,33.70
2019-02-06T16:42:56.841Z,36.13
2019-02-06T16:45:51.382Z,32.97
2019-02-06T16:48:47.852Z,47.57
2019-02-06T16:51:35.503Z,59.30
2019-02-06T16:54:32.794Z,43.07
2019-02-06T16:57:36.362Z,60.77
2019-02-06T17:00:45.434Z,45.93
2019-02-06T17:03:54.454Z,46.43
2019-02-06T17:06:48.022Z,50.30
2019-02-06T17:09:37.903Z,49.53
2019-02-06T17:12:47.072Z,48.50
2019-02-06T17:15:48.514Z,50.90
2019-02-06T17:18:42.266Z,56.23
2019-02-06T17:21:30.111Z,84.03
2019-02-06T17:24:39.372Z,62.70
2019-02-06T17:27:37.533Z,56.10
2019-02-06T17:30:35.170Z,47.23
2019-02-06T17:33:47.049Z,51.43
2019-02-06T17:36:31.641Z,64.13
2019-02-06T17:39:24.522Z,63.70
2019-02-06T17:42:15.699Z,59.10
2019-02-06T17:45:17.745Z,50.27
2019-02-06T17:48:22.052Z,67.60
2019-02-06T17:51:34.105Z,79.37
2019-02-06T17:54:18.928Z,70.30
2019-02-06T17:56:49.388Z,74.07
2019-02-06T17:59:19.879Z,70.57
2019-02-06T18:01:53.413Z,71.97
2019-02-06T18:04:31.837Z,78.67
2019-02-06T18:07:02.172Z,87.60
2019-02-06T18:09:32.804Z,83.53
2019-02-06T18:12:03.429Z,88.47
2019-02-06T18:14:33.943Z,93.90
2019-02-06T18:17:04.897Z,99.83
2019-02-06T18:19:38.952Z,94.90
2019-02-06T18:22:09.907Z,95.53
2019-02-06T18:24:40.476Z,98.07
2019-02-06T18:27:11.342Z,100.33
2019-02-06T18:29:41.746Z,97.40
2019-02-06T18:32:13.351Z,101.00
2019-02-06T18:34:44.042Z,101.10
2019-02-06T18:37:14.461Z,114.87
2019-02-06T18:39:45.000Z,102.80
2019-02-06T18:42:15.603Z,109.23
2019-02-06T18:44:46.124Z,104.67
2019-02-06T18:47:17.792Z,105.60
2019-02-06T18:49:48.433Z,107.10
2019-02-06T18:52:20.388Z,108.17
2019-02-06T18:54:50.913Z,109.53
2019-02-06T18:57:21.296Z,115.17
2019-02-06T18:59:51.670Z,97.93
2019-02-06T19:02:22.186Z,99.90
2019-02-06T19:04:52.628Z,100.87
2019-02-06T19:07:23.758Z,111.13
2019-02-06T19:09:54.388Z,111.13
2019-02-06T19:12:24.802Z,108.07
2019-02-06T19:14:55.203Z,119.90
2019-02-06T19:17:25.891Z,110.07
2019-02-06T19:19:56.307Z,120.83
2019-02-06T19:22:27.268Z,109.23
2019-02-06T19:24:57.767Z,108.30
2019-02-06T19:27:28.291Z,106.67
2019-02-06T19:29:59.041Z,107.83
2019-02-06T19:32:29.562Z,115.27
2019-02-06T19:35:00.312Z,117.80
2019-02-06T19:37:31.357Z,116.80
2019-02-06T19:40:02.888Z,108.87
2019-02-06T19:42:33.486Z,111.30
2019-02-06T19:45:04.133Z,110.40
2019-02-06T19:47:37.879Z,119.50
2019-02-06T19:50:13.916Z,106.97
2019-02-06T19:52:44.658Z,118.30
2019-02-06T19:55:16.820Z,118.37
2019-02-06T19:57:47.379Z,117.30
2019-02-06T20:00:20.850Z,118.97
2019-02-06T20:02:51.388Z,115.10
2019-02-06T20:05:22.879Z,111.87
2019-02-06T20:07:53.563Z,110.00
2019-02-06T20:10:26.833Z,113.03
2019-02-06T20:12:57.368Z,115.57
2019-02-06T20:15:27.880Z,115.63
2019-02-06T20:17:58.335Z,110.40
2019-02-06T20:20:28.764Z,117.37
2019-02-06T20:22:59.124Z,119.13
2019-02-06T20:25:29.946Z,133.13
2019-02-06T20:28:00.581Z,128.17
2019-02-06T20:30:32.114Z,134.87
2019-02-06T20:33:03.055Z,111.53
2019-02-06T20:35:33.686Z,113.50
2019-02-06T20:38:04.213Z,139.70
2019-02-06T20:40:36.122Z,131.10
2019-02-06T20:43:06.478Z,132.53
2019-02-06T20:45:36.936Z,153.93
2019-02-06T20:48:07.291Z,146.73
2019-02-06T20:50:37.911Z,170.10
2019-02-06T20:53:08.413Z,163.70
2019-02-06T20:55:39.057Z,161.60
2019-02-06T20:58:09.726Z,168.63
2019-02-06T21:00:40.320Z,174.67
2019-02-06T21:03:10.754Z,175.53
2019-02-06T21:05:41.280Z,187.40
2019-02-06T21:08:11.745Z,191.43
2019-02-06T21:10:42.210Z,206.03
2019-02-06T21:13:13.056Z,205.07
2019-02-06T21:15:43.902Z,197.53
2019-02-06T21:18:14.431Z,208.17
2019-02-06T21:20:45.113Z,223.80
2019-02-06T21:23:15.729Z,214.03
2019-02-06T21:25:46.188Z,230.27
2019-02-06T21:28:16.653Z,224.17
2019-02-06T21:30:47.123Z,233.53
2019-02-06T21:33:17.673Z,237.53
2019-02-06T21:35:48.087Z,232.63
2019-02-06T21:38:18.383Z,251.57
2019-02-06T21:40:48.923Z,260.47
2019-02-06T21:43:19.283Z,226.30
2019-02-06T21:45:49.967Z,223.00
2019-02-06T21:48:22.444Z,234.83
2019-02-06T21:50:53.042Z,217.40
2019-02-06T21:53:23.667Z,229.23
2019-02-06T21:55:54.200Z,221.80
2019-02-06T21:58:24.739Z,234.47
2019-02-06T22:00:55.357Z,228.80
2019-02-06T22:03:25.783Z,216.87
2019-02-06T22:05:57.102Z,221.67
2019-02-06T22:08:27.622Z,248.37
2019-02-06T22:10:58.114Z,234.50
2019-02-06T22:13:28.519Z,222.50
2019-02-06T22:15:59.033Z,225.40
2019-02-06T22:18:29.464Z,231.87
2019-02-06T22:20:59.955Z,236.77
2019-02-06T22:23:30.519Z,216.07
2019-02-06T22:26:01.020Z,233.40
2019-02-06T22:28:31.789Z,239.87
2019-02-06T22:31:03.072Z,230.43
2019-02-06T22:33:34.347Z,230.83
2019-02-06T22:36:04.723Z,227.97
2019-02-06T22:38:35.128Z,217.43
2019-02-06T22:41:05.788Z,213.50
2019-02-06T22:43:36.294Z,213.97
2019-02-06T22:46:06.813Z,211.40
2019-02-06T22:48:37.261Z,221.00
2019-02-06T22:51:07.610Z,184.87
2019-02-06T22:53:38.033Z,191.63
2019-02-06T22:56:08.535Z,209.83
2019-02-06T22:58:39.049Z,192.40
2019-02-06T23:01:24.889Z,191.90
2019-02-06T23:03:55.580Z,194.43
2019-02-06T23:06:26.525Z,191.33
2019-02-06T23:08:56.934Z,187.70
2019-02-06T23:11:27.477Z,181.63
2019-02-06T23:13:57.882Z,171.93
2019-02-06T23:16:28.331Z,171.47
2019-02-06T23:18:58.681Z,160.30
2019-02-06T23:21:29.183Z,172.57
2019-02-06T23:23:59.712Z,162.00
2019-02-06T23:26:30.134Z,170.97
2019-02-06T23:29:00.446Z,152.80
2019-02-06T23:31:30.929Z,154.13
2019-02-06T23:34:01.419Z,157.23
2019-02-06T23:36:32.761Z,163.10
2019-02-06T23:39:03.891Z,165.60
2019-02-06T23:41:34.338Z,153.27
2019-02-06T23:44:04.734Z,147.27
2019-02-06T23:46:35.246Z,155.47
2019-02-06T23:49:05.921Z,151.57
2019-02-06T23:51:36.342Z,154.50
2019-02-06T23:54:06.658Z,160.20
2019-02-06T23:56:37.191Z,160.50
2019-02-06T23:59:07.626Z,155.80
